Terminal Aerodrome Forecast
Issued by NWS Billings, MT

Home | Current Version | Previous Version | Graphics & Text | Print | Product List | Glossary On
Versions: 1 2 3 4 5 6 7 8 9 10 11 12 13 14 15 16 17 18 19 20 21 22 23 24 25 26 27 28 29 30 31
000
FTUS45 KBYZ 210526
TAFMLS
TAF
KMLS 210526Z 2106/2206 15008KT P6SM SCT120 WS006/27031KT
     FM210900 24007KT P6SM SCT120 WS007/28034KT
     FM211800 24012G20KT P6SM SKC
     FM220300 15008KT P6SM FEW090=

USA.gov is the U.S. government's official web portal to all federal, state and local government web resources and services.